»·PEaware :: COWBOY21 KLSV-KLSV

COWBOY21 :: KLSV-KLSV

FLIGHT INFORMATION

Flight Status: Arrived
Operator: Unknown
More flights by this operator :: More flights under this callsign
Pilot: Anonymous 3903 (3903)
Aircraft: NORTHROP F-5 FREEDON FIGHTER
(F5)
More flights by this aircraft type
Origin: KLSV Nellis AFB
United States
Destination: KLSV Nellis AFB
United States
More flights between these airports :: More routes between these airports
Route: +DREAM4 JUNNO
File this flight plan on PilotEdge
Remarks:
Altitude:
(Current/Filed)
0ft
Speed:
(Current/Filed)
0kts
Departed: 09-Nov-16 05:13 PM
Arrived: 09-Nov-16 05:51 PM
Distance/Time
Traveled:
1nm/0:38
Distance/Time
To Go:
Arrived

Flight Plot

Page will automatically refresh every two minutes.

Flight plan parsing failed; only flown route is shown


Map Options




Map Legend


Flown Route
Filed Route
Departure Airport
Arrival Airport
Navaid (VOR, NDB)
Fix

Horizontal Profiles

Position Reports

Time Latitude Longitude Heading Altitude Ground
Speed
09-Nov-16 16:31 36.236076 -115.040518 130 1853ft 0kts
09-Nov-16 16:32 36.236076 -115.040518 130 1853ft 0kts
09-Nov-16 16:33 36.236076 -115.040518 130 1853ft 0kts
09-Nov-16 16:34 36.236076 -115.040518 130 1853ft 0kts
09-Nov-16 16:35 36.236076 -115.040518 130 1853ft 0kts
09-Nov-16 16:36 36.236076 -115.040518 130 1853ft 0kts
09-Nov-16 16:37 36.236076 -115.040518 130 1853ft 0kts
09-Nov-16 16:38 36.236076 -115.040518 130 1853ft 0kts
09-Nov-16 16:39 36.236076 -115.040518 130 1853ft 0kts
09-Nov-16 16:40 36.236076 -115.040518 130 1853ft 0kts
09-Nov-16 16:41 36.236076 -115.040518 130 1853ft 0kts
09-Nov-16 16:42 36.236076 -115.040518 130 1853ft 0kts
09-Nov-16 16:43 36.236076 -115.040518 130 1853ft 0kts
09-Nov-16 16:44 36.236076 -115.040518 130 1853ft 0kts
09-Nov-16 16:45 36.236076 -115.040518 130 1853ft 0kts
09-Nov-16 16:46 36.236076 -115.040518 130 1853ft 0kts
09-Nov-16 16:47 36.236076 -115.040518 130 1853ft 0kts
09-Nov-16 16:48 36.236076 -115.040518 130 1853ft 0kts
09-Nov-16 16:49 36.236076 -115.040518 130 1853ft 0kts
09-Nov-16 16:50 36.236076 -115.040518 130 1853ft 0kts
09-Nov-16 16:51 36.236076 -115.040518 130 1853ft 0kts
09-Nov-16 16:52 36.236076 -115.040518 130 1853ft 0kts
09-Nov-16 16:53 36.236076 -115.040518 130 1853ft 0kts
09-Nov-16 16:54 36.236076 -115.040518 130 1853ft 0kts
09-Nov-16 16:55 36.236076 -115.040518 130 1853ft 0kts
09-Nov-16 16:56 36.236076 -115.040518 130 1853ft 0kts
09-Nov-16 16:57 36.236076 -115.040518 130 1853ft 0kts
09-Nov-16 16:58 36.236076 -115.040518 130 1853ft 0kts
09-Nov-16 16:59 36.236076 -115.040518 130 1853ft 0kts
09-Nov-16 17:00 36.236076 -115.040519 130 1853ft 0kts
09-Nov-16 17:01 36.236076 -115.040519 130 1853ft 0kts
09-Nov-16 17:02 36.236076 -115.040519 130 1853ft 0kts
09-Nov-16 17:03 36.236076 -115.040519 130 1853ft 0kts
09-Nov-16 17:04 36.232284 -115.043114 220 1849ft 28kts
09-Nov-16 17:05 36.227640 -115.047892 152 1848ft 12kts
09-Nov-16 17:06 36.227165 -115.047235 129 1846ft 14kts
09-Nov-16 17:07 36.242079 -115.030034 40 2009ft 238kts
09-Nov-16 17:08 36.307464 -114.957638 42 5102ft 334kts
09-Nov-16 17:09 36.376794 -114.874145 43 8363ft 352kts
09-Nov-16 17:10 36.445300 -114.789498 43 9378ft 332kts
09-Nov-16 17:11 36.514425 -114.702511 58 9401ft 366kts
09-Nov-16 17:12 36.518703 -114.577162 92 9347ft 352kts
09-Nov-16 17:13 36.569886 -114.510357 332 9315ft 296kts
09-Nov-16 17:14 36.580486 -114.606317 253 9397ft 320kts
09-Nov-16 17:15 36.520385 -114.691038 224 9198ft 323kts
09-Nov-16 17:16 36.459940 -114.766932 223 8269ft 290kts
09-Nov-16 17:17 36.404352 -114.833966 223 6076ft 272kts
09-Nov-16 17:18 36.351428 -114.899357 223 4443ft 272kts
09-Nov-16 17:19 36.298082 -114.962560 222 3521ft 250kts
09-Nov-16 17:20 36.252474 -115.014211 220 2429ft 219kts
09-Nov-16 17:21 36.205041 -115.089119 267 5384ft 316kts
09-Nov-16 17:22 36.273007 -115.140216 18 8762ft 353kts
09-Nov-16 17:23 36.356668 -115.073780 34 13364ft 341kts
09-Nov-16 17:24 36.442495 -115.006848 31 15702ft 392kts
09-Nov-16 17:25 36.542316 -114.955677 10 15715ft 360kts
09-Nov-16 17:26 36.642148 -114.933832 7 15683ft 368kts
09-Nov-16 17:27 36.744769 -114.913145 8 15721ft 378kts
09-Nov-16 17:28 36.826039 -114.837628 55 15722ft 381kts
09-Nov-16 17:29 36.896685 -114.742358 10 15721ft 373kts
09-Nov-16 17:30 36.937736 -114.812091 223 15734ft 330kts
09-Nov-16 17:31 36.851206 -114.849600 192 15714ft 335kts
09-Nov-16 17:32 36.756463 -114.875982 189 15735ft 360kts
09-Nov-16 17:33 36.664116 -114.857185 141 13306ft 338kts
09-Nov-16 17:34 36.593222 -114.790484 140 9371ft 290kts
09-Nov-16 17:35 36.524892 -114.743665 176 8638ft 289kts
09-Nov-16 17:36 36.454233 -114.779118 224 5706ft 281kts
09-Nov-16 17:37 36.400427 -114.841514 221 5143ft 255kts
09-Nov-16 17:38 36.349467 -114.900313 221 4473ft 249kts
09-Nov-16 17:39 36.303592 -114.956713 222 3387ft 216kts
09-Nov-16 17:40 36.261890 -115.003790 220 2252ft 191kts
09-Nov-16 17:41 36.219963 -115.048050 203 2852ft 245kts
09-Nov-16 17:42 36.220698 -115.000805 35 3329ft 221kts
09-Nov-16 17:43 36.263291 -114.995901 241 2513ft 214kts
09-Nov-16 17:44 36.232840 -115.035299 220 1847ft 71kts
09-Nov-16 17:45 36.225261 -115.044258 286 1846ft 16kts
09-Nov-16 17:46 36.227195 -115.047317 312 1846ft 20kts
09-Nov-16 17:47 36.228318 -115.049816 221 1850ft 5kts
09-Nov-16 17:48 36.228235 -115.049906 219 1850ft 0kts
09-Nov-16 17:49 36.228235 -115.049906 219 1850ft 0kts
09-Nov-16 17:50 36.228235 -115.049906 219 1850ft 0kts
09-Nov-16 17:51 36.228235 -115.049906 219 1850ft 0kts
09-Nov-16 17:52 36.228235 -115.049906 219 1850ft 0kts
09-Nov-16 17:53 36.228235 -115.049906 219 1850ft 0kts
09-Nov-16 17:54 36.228235 -115.049906 219 1850ft 0kts
09-Nov-16 17:55 36.228235 -115.049906 219 1850ft 0kts
09-Nov-16 17:56 36.228235 -115.049905 219 1850ft 0kts
09-Nov-16 17:57 36.228235 -115.049905 219 1850ft 0kts
09-Nov-16 17:58 36.228235 -115.049905 219 1850ft 0kts
09-Nov-16 17:59 36.228235 -115.049905 219 1850ft 0kts

Navigation Log

Ident Type
Flight plan parsing failed, navigation log unavailable